sensor_id;sensor_type;location;lat;lon;timestamp;P1;durP1;ratioP1;P2;durP2;ratioP2
23543;SDS011;11950;51.230;4.012;2023-06-10T00:01:58;9.68;;;8.82;;
23543;SDS011;11950;51.230;4.012;2023-06-10T00:04:25;9.82;;;8.90;;
23543;SDS011;11950;51.230;4.012;2023-06-10T00:06:53;10.40;;;9.30;;
23543;SDS011;11950;51.230;4.012;2023-06-10T00:09:19;9.65;;;8.77;;
23543;SDS011;11950;51.230;4.012;2023-06-10T00:11:47;10.30;;;9.23;;
23543;SDS011;11950;51.230;4.012;2023-06-10T00:14:13;10.00;;;9.00;;
23543;SDS011;11950;51.230;4.012;2023-06-10T00:16:40;10.10;;;9.20;;
23543;SDS011;11950;51.230;4.012;2023-06-10T00:19:06;11.57;;;10.32;;
23543;SDS011;11950;51.230;4.012;2023-06-10T00:21:34;10.40;;;9.40;;
23543;SDS011;11950;51.230;4.012;2023-06-10T00:24:03;10.68;;;9.57;;
23543;SDS011;11950;51.230;4.012;2023-06-10T00:26:31;9.68;;;8.85;;
23543;SDS011;11950;51.230;4.012;2023-06-10T00:28:58;11.98;;;8.80;;
23543;SDS011;11950;51.230;4.012;2023-06-10T00:31:25;10.00;;;9.10;;
23543;SDS011;11950;51.230;4.012;2023-06-10T00:33:52;10.63;;;9.52;;
23543;SDS011;11950;51.230;4.012;2023-06-10T00:36:18;10.30;;;9.38;;
23543;SDS011;11950;51.230;4.012;2023-06-10T00:38:45;9.75;;;8.93;;
23543;SDS011;11950;51.230;4.012;2023-06-10T00:41:11;10.65;;;9.55;;
23543;SDS011;11950;51.230;4.012;2023-06-10T00:43:37;10.05;;;9.13;;
23543;SDS011;11950;51.230;4.012;2023-06-10T00:46:03;9.88;;;8.93;;
23543;SDS011;11950;51.230;4.012;2023-06-10T00:48:30;11.13;;;9.90;;
23543;SDS011;11950;51.230;4.012;2023-06-10T00:50:56;10.85;;;9.05;;
23543;SDS011;11950;51.230;4.012;2023-06-10T00:53:23;10.55;;;9.65;;
23543;SDS011;11950;51.230;4.012;2023-06-10T00:55:50;10.35;;;9.27;;
23543;SDS011;11950;51.230;4.012;2023-06-10T00:58:17;10.02;;;9.13;;
23543;SDS011;11950;51.230;4.012;2023-06-10T01:00:43;10.98;;;9.82;;
23543;SDS011;11950;51.230;4.012;2023-06-10T01:03:10;9.65;;;8.80;;
23543;SDS011;11950;51.230;4.012;2023-06-10T01:05:38;14.23;;;9.75;;
23543;SDS011;11950;51.230;4.012;2023-06-10T01:11:05;10.05;;;9.15;;
23543;SDS011;11950;51.230;4.012;2023-06-10T01:13:38;11.68;;;9.35;;
23543;SDS011;11950;51.230;4.012;2023-06-10T01:16:08;10.10;;;8.85;;
23543;SDS011;11950;51.230;4.012;2023-06-10T01:18:40;12.63;;;9.15;;
23543;SDS011;11950;51.230;4.012;2023-06-10T01:21:07;11.18;;;9.55;;
23543;SDS011;11950;51.230;4.012;2023-06-10T01:23:34;10.02;;;9.18;;
23543;SDS011;11950;51.230;4.012;2023-06-10T01:26:06;10.05;;;9.10;;
23543;SDS011;11950;51.230;4.012;2023-06-10T01:28:49;11.43;;;10.25;;
23543;SDS011;11950;51.230;4.012;2023-06-10T01:31:41;10.15;;;9.25;;
23543;SDS011;11950;51.230;4.012;2023-06-10T01:34:10;10.57;;;9.60;;
23543;SDS011;11950;51.230;4.012;2023-06-10T01:36:40;10.60;;;9.30;;
23543;SDS011;11950;51.230;4.012;2023-06-10T01:39:09;10.23;;;9.23;;
23543;SDS011;11950;51.230;4.012;2023-06-10T01:41:36;10.43;;;9.48;;
23543;SDS011;11950;51.230;4.012;2023-06-10T01:44:03;10.45;;;9.55;;
23543;SDS011;11950;51.230;4.012;2023-06-10T01:46:30;10.15;;;9.25;;
23543;SDS011;11950;51.230;4.012;2023-06-10T01:48:56;11.50;;;9.95;;
23543;SDS011;11950;51.230;4.012;2023-06-10T01:51:22;10.85;;;9.77;;
23543;SDS011;11950;51.230;4.012;2023-06-10T01:53:48;10.70;;;9.45;;
23543;SDS011;11950;51.230;4.012;2023-06-10T01:56:15;10.82;;;9.88;;
23543;SDS011;11950;51.230;4.012;2023-06-10T01:58:45;11.63;;;10.57;;
23543;SDS011;11950;51.230;4.012;2023-06-10T02:01:12;11.35;;;10.15;;
23543;SDS011;11950;51.230;4.012;2023-06-10T02:03:38;11.57;;;10.40;;
23543;SDS011;11950;51.230;4.012;2023-06-10T02:06:05;11.35;;;10.13;;
23543;SDS011;11950;51.230;4.012;2023-06-10T02:08:32;14.38;;;10.63;;
23543;SDS011;11950;51.230;4.012;2023-06-10T02:11:00;11.85;;;10.23;;
23543;SDS011;11950;51.230;4.012;2023-06-10T02:13:28;11.43;;;10.18;;
23543;SDS011;11950;51.230;4.012;2023-06-10T02:15:55;10.55;;;9.55;;
23543;SDS011;11950;51.230;4.012;2023-06-10T02:18:21;11.23;;;10.23;;
23543;SDS011;11950;51.230;4.012;2023-06-10T02:20:47;11.52;;;10.30;;
23543;SDS011;11950;51.230;4.012;2023-06-10T02:23:14;13.65;;;10.02;;
23543;SDS011;11950;51.230;4.012;2023-06-10T02:25:40;11.52;;;10.45;;
23543;SDS011;11950;51.230;4.012;2023-06-10T02:28:06;10.77;;;9.77;;
23543;SDS011;11950;51.230;4.012;2023-06-10T02:30:33;12.40;;;10.77;;
23543;SDS011;11950;51.230;4.012;2023-06-10T02:32:59;11.65;;;10.32;;
23543;SDS011;11950;51.230;4.012;2023-06-10T02:35:27;13.05;;;9.98;;
23543;SDS011;11950;51.230;4.012;2023-06-10T02:37:54;12.30;;;11.10;;
23543;SDS011;11950;51.230;4.012;2023-06-10T02:40:21;11.90;;;10.73;;
23543;SDS011;11950;51.230;4.012;2023-06-10T02:42:48;11.85;;;10.75;;
23543;SDS011;11950;51.230;4.012;2023-06-10T02:45:14;11.48;;;10.38;;
23543;SDS011;11950;51.230;4.012;2023-06-10T02:47:42;11.27;;;10.25;;
23543;SDS011;11950;51.230;4.012;2023-06-10T02:50:11;12.15;;;10.73;;
23543;SDS011;11950;51.230;4.012;2023-06-10T02:52:46;11.75;;;10.70;;
23543;SDS011;11950;51.230;4.012;2023-06-10T02:55:13;13.32;;;10.27;;
23543;SDS011;11950;51.230;4.012;2023-06-10T02:57:44;11.48;;;10.45;;
23543;SDS011;11950;51.230;4.012;2023-06-10T03:00:10;11.88;;;10.68;;
23543;SDS011;11950;51.230;4.012;2023-06-10T03:02:39;12.80;;;11.05;;
23543;SDS011;11950;51.230;4.012;2023-06-10T03:05:07;12.38;;;10.90;;
23543;SDS011;11950;51.230;4.012;2023-06-10T03:07:40;12.30;;;10.57;;
23543;SDS011;11950;51.230;4.012;2023-06-10T03:10:06;11.88;;;10.68;;
23543;SDS011;11950;51.230;4.012;2023-06-10T03:12:35;12.02;;;10.93;;
23543;SDS011;11950;51.230;4.012;2023-06-10T03:15:01;12.23;;;11.02;;
23543;SDS011;11950;51.230;4.012;2023-06-10T03:17:30;12.73;;;11.52;;
23543;SDS011;11950;51.230;4.012;2023-06-10T03:19:57;13.70;;;10.40;;
23543;SDS011;11950;51.230;4.012;2023-06-10T03:22:24;12.20;;;11.02;;
23543;SDS011;11950;51.230;4.012;2023-06-10T03:25:06;12.65;;;11.35;;
23543;SDS011;11950;51.230;4.012;2023-06-10T03:27:34;12.23;;;10.98;;
23543;SDS011;11950;51.230;4.012;2023-06-10T03:30:05;12.45;;;11.15;;
23543;SDS011;11950;51.230;4.012;2023-06-10T03:32:32;12.35;;;11.13;;
23543;SDS011;11950;51.230;4.012;2023-06-10T03:35:00;13.45;;;11.57;;
23543;SDS011;11950;51.230;4.012;2023-06-10T03:37:28;13.60;;;12.18;;
23543;SDS011;11950;51.230;4.012;2023-06-10T03:39:55;13.63;;;11.50;;
23543;SDS011;11950;51.230;4.012;2023-06-10T03:42:21;13.52;;;11.73;;
23543;SDS011;11950;51.230;4.012;2023-06-10T03:44:47;14.90;;;12.27;;
23543;SDS011;11950;51.230;4.012;2023-06-10T03:47:14;13.43;;;12.07;;
23543;SDS011;11950;51.230;4.012;2023-06-10T03:49:42;13.00;;;11.65;;
23543;SDS011;11950;51.230;4.012;2023-06-10T03:52:10;17.30;;;12.07;;
23543;SDS011;11950;51.230;4.012;2023-06-10T03:54:37;11.98;;;10.80;;
23543;SDS011;11950;51.230;4.012;2023-06-10T03:57:03;13.38;;;12.02;;
23543;SDS011;11950;51.230;4.012;2023-06-10T03:59:31;12.75;;;11.45;;
23543;SDS011;11950;51.230;4.012;2023-06-10T04:01:58;15.32;;;11.75;;
23543;SDS011;11950;51.230;4.012;2023-06-10T04:04:24;12.63;;;11.32;;
23543;SDS011;11950;51.230;4.012;2023-06-10T04:06:50;16.52;;;12.90;;
23543;SDS011;11950;51.230;4.012;2023-06-10T04:09:16;12.93;;;11.60;;
23543;SDS011;11950;51.230;4.012;2023-06-10T04:11:43;13.93;;;12.52;;
23543;SDS011;11950;51.230;4.012;2023-06-10T04:14:10;13.80;;;12.43;;
23543;SDS011;11950;51.230;4.012;2023-06-10T04:16:37;15.20;;;12.32;;
23543;SDS011;11950;51.230;4.012;2023-06-10T04:19:04;14.13;;;12.25;;
23543;SDS011;11950;51.230;4.012;2023-06-10T04:21:31;13.63;;;12.25;;
23543;SDS011;11950;51.230;4.012;2023-06-10T04:24:09;13.95;;;12.55;;
23543;SDS011;11950;51.230;4.012;2023-06-10T04:26:36;13.43;;;12.18;;
23543;SDS011;11950;51.230;4.012;2023-06-10T04:29:03;13.23;;;12.00;;
23543;SDS011;11950;51.230;4.012;2023-06-10T04:31:30;13.38;;;12.00;;
23543;SDS011;11950;51.230;4.012;2023-06-10T04:33:58;13.63;;;12.32;;
23543;SDS011;11950;51.230;4.012;2023-06-10T04:36:24;14.05;;;12.38;;
23543;SDS011;11950;51.230;4.012;2023-06-10T04:38:51;14.65;;;12.05;;
23543;SDS011;11950;51.230;4.012;2023-06-10T04:41:18;17.13;;;13.00;;
23543;SDS011;11950;51.230;4.012;2023-06-10T04:43:45;14.52;;;12.45;;
23543;SDS011;11950;51.230;4.012;2023-06-10T04:46:12;13.50;;;12.02;;
23543;SDS011;11950;51.230;4.012;2023-06-10T04:48:39;14.25;;;12.77;;
23543;SDS011;11950;51.230;4.012;2023-06-10T04:51:05;13.80;;;12.38;;
23543;SDS011;11950;51.230;4.012;2023-06-10T04:53:31;14.85;;;12.13;;
23543;SDS011;11950;51.230;4.012;2023-06-10T04:55:58;16.60;;;13.27;;
23543;SDS011;11950;51.230;4.012;2023-06-10T04:58:24;15.15;;;11.85;;
23543;SDS011;11950;51.230;4.012;2023-06-10T05:00:50;14.75;;;12.57;;
23543;SDS011;11950;51.230;4.012;2023-06-10T05:03:17;16.65;;;13.00;;
23543;SDS011;11950;51.230;4.012;2023-06-10T05:05:43;16.42;;;12.57;;
23543;SDS011;11950;51.230;4.012;2023-06-10T05:08:09;15.38;;;12.65;;
23543;SDS011;11950;51.230;4.012;2023-06-10T05:10:35;14.27;;;12.70;;
23543;SDS011;11950;51.230;4.012;2023-06-10T05:13:01;15.20;;;12.82;;
23543;SDS011;11950;51.230;4.012;2023-06-10T05:15:28;14.20;;;12.70;;
23543;SDS011;11950;51.230;4.012;2023-06-10T05:17:56;14.68;;;13.15;;
23543;SDS011;11950;51.230;4.012;2023-06-10T05:20:24;13.35;;;11.98;;
23543;SDS011;11950;51.230;4.012;2023-06-10T05:22:51;13.85;;;12.23;;
23543;SDS011;11950;51.230;4.012;2023-06-10T05:25:17;13.77;;;12.30;;
23543;SDS011;11950;51.230;4.012;2023-06-10T05:27:43;15.80;;;11.75;;
23543;SDS011;11950;51.230;4.012;2023-06-10T05:30:10;14.52;;;12.20;;
23543;SDS011;11950;51.230;4.012;2023-06-10T05:32:36;13.43;;;11.65;;
23543;SDS011;11950;51.230;4.012;2023-06-10T05:35:03;13.38;;;11.90;;
23543;SDS011;11950;51.230;4.012;2023-06-10T05:37:30;13.23;;;11.82;;
23543;SDS011;11950;51.230;4.012;2023-06-10T05:39:56;13.75;;;12.23;;
23543;SDS011;11950;51.230;4.012;2023-06-10T05:42:22;12.52;;;11.32;;
23543;SDS011;11950;51.230;4.012;2023-06-10T05:44:49;14.05;;;12.00;;
23543;SDS011;11950;51.230;4.012;2023-06-10T05:47:15;12.85;;;11.63;;
23543;SDS011;11950;51.230;4.012;2023-06-10T05:49:41;13.20;;;11.90;;
23543;SDS011;11950;51.230;4.012;2023-06-10T05:52:07;14.15;;;12.85;;
23543;SDS011;11950;51.230;4.012;2023-06-10T05:54:34;14.07;;;11.73;;
23543;SDS011;11950;51.230;4.012;2023-06-10T05:57:00;17.73;;;11.57;;
23543;SDS011;11950;51.230;4.012;2023-06-10T05:59:26;14.98;;;12.68;;
23543;SDS011;11950;51.230;4.012;2023-06-10T06:01:52;13.88;;;12.15;;
23543;SDS011;11950;51.230;4.012;2023-06-10T06:04:19;13.00;;;11.80;;
23543;SDS011;11950;51.230;4.012;2023-06-10T06:06:47;15.13;;;12.75;;
23543;SDS011;11950;51.230;4.012;2023-06-10T06:09:14;13.63;;;12.23;;
23543;SDS011;11950;51.230;4.012;2023-06-10T06:11:40;13.50;;;12.13;;
23543;SDS011;11950;51.230;4.012;2023-06-10T06:14:07;16.00;;;11.93;;
23543;SDS011;11950;51.230;4.012;2023-06-10T06:16:33;13.95;;;12.55;;
23543;SDS011;11950;51.230;4.012;2023-06-10T06:18:59;13.55;;;12.10;;
23543;SDS011;11950;51.230;4.012;2023-06-10T06:21:25;14.95;;;12.10;;
23543;SDS011;11950;51.230;4.012;2023-06-10T06:23:52;14.18;;;12.40;;
23543;SDS011;11950;51.230;4.012;2023-06-10T06:26:18;15.00;;;11.48;;
23543;SDS011;11950;51.230;4.012;2023-06-10T06:28:44;13.10;;;11.77;;
23543;SDS011;11950;51.230;4.012;2023-06-10T06:31:10;14.02;;;11.95;;
23543;SDS011;11950;51.230;4.012;2023-06-10T06:33:37;13.35;;;11.48;;
23543;SDS011;11950;51.230;4.012;2023-06-10T06:36:03;14.68;;;11.27;;
23543;SDS011;11950;51.230;4.012;2023-06-10T06:38:29;14.85;;;12.13;;
23543;SDS011;11950;51.230;4.012;2023-06-10T06:40:55;15.23;;;11.73;;
23543;SDS011;11950;51.230;4.012;2023-06-10T06:43:22;13.15;;;11.43;;
23543;SDS011;11950;51.230;4.012;2023-06-10T06:46:17;14.23;;;11.30;;
23543;SDS011;11950;51.230;4.012;2023-06-10T06:48:43;12.98;;;11.27;;
23543;SDS011;11950;51.230;4.012;2023-06-10T06:51:10;13.93;;;10.32;;
23543;SDS011;11950;51.230;4.012;2023-06-10T06:53:36;11.38;;;10.27;;
23543;SDS011;11950;51.230;4.012;2023-06-10T06:56:02;12.40;;;10.52;;
23543;SDS011;11950;51.230;4.012;2023-06-10T06:58:29;13.88;;;11.10;;
23543;SDS011;11950;51.230;4.012;2023-06-10T07:00:55;12.27;;;11.07;;
23543;SDS011;11950;51.230;4.012;2023-06-10T07:03:22;12.95;;;10.52;;
23543;SDS011;11950;51.230;4.012;2023-06-10T07:05:48;13.23;;;11.13;;
23543;SDS011;11950;51.230;4.012;2023-06-10T07:08:14;15.25;;;11.38;;
23543;SDS011;11950;51.230;4.012;2023-06-10T07:10:41;12.25;;;11.02;;
23543;SDS011;11950;51.230;4.012;2023-06-10T07:13:07;13.95;;;10.70;;
23543;SDS011;11950;51.230;4.012;2023-06-10T07:15:34;11.25;;;10.15;;
23543;SDS011;11950;51.230;4.012;2023-06-10T07:18:00;12.18;;;10.63;;
23543;SDS011;11950;51.230;4.012;2023-06-10T07:20:26;15.77;;;10.75;;
23543;SDS011;11950;51.230;4.012;2023-06-10T07:22:53;12.60;;;10.35;;
23543;SDS011;11950;51.230;4.012;2023-06-10T07:25:19;11.63;;;10.55;;
23543;SDS011;11950;51.230;4.012;2023-06-10T07:27:45;12.10;;;10.55;;
23543;SDS011;11950;51.230;4.012;2023-06-10T07:30:11;11.35;;;10.13;;
23543;SDS011;11950;51.230;4.012;2023-06-10T07:32:38;11.65;;;10.50;;
23543;SDS011;11950;51.230;4.012;2023-06-10T07:35:07;14.13;;;10.05;;
23543;SDS011;11950;51.230;4.012;2023-06-10T07:37:36;12.20;;;9.75;;
23543;SDS011;11950;51.230;4.012;2023-06-10T07:40:03;11.05;;;9.98;;
23543;SDS011;11950;51.230;4.012;2023-06-10T07:42:31;11.38;;;9.90;;
23543;SDS011;11950;51.230;4.012;2023-06-10T07:45:00;15.02;;;10.50;;
23543;SDS011;11950;51.230;4.012;2023-06-10T07:47:26;10.95;;;9.75;;
23543;SDS011;11950;51.230;4.012;2023-06-10T07:49:52;11.00;;;9.90;;
23543;SDS011;11950;51.230;4.012;2023-06-10T07:52:18;10.35;;;9.40;;
23543;SDS011;11950;51.230;4.012;2023-06-10T07:54:45;11.02;;;9.98;;
23543;SDS011;11950;51.230;4.012;2023-06-10T07:57:11;10.02;;;9.02;;
23543;SDS011;11950;51.230;4.012;2023-06-10T07:59:37;11.27;;;9.60;;
23543;SDS011;11950;51.230;4.012;2023-06-10T08:02:04;11.48;;;10.20;;
23543;SDS011;11950;51.230;4.012;2023-06-10T08:04:31;12.55;;;9.88;;
23543;SDS011;11950;51.230;4.012;2023-06-10T08:06:57;10.27;;;9.27;;
23543;SDS011;11950;51.230;4.012;2023-06-10T08:09:23;10.65;;;9.30;;
23543;SDS011;11950;51.230;4.012;2023-06-10T08:11:50;11.43;;;10.02;;
23543;SDS011;11950;51.230;4.012;2023-06-10T08:14:16;15.52;;;9.38;;
23543;SDS011;11950;51.230;4.012;2023-06-10T08:16:43;10.82;;;9.73;;
23543;SDS011;11950;51.230;4.012;2023-06-10T08:19:09;14.23;;;9.77;;
23543;SDS011;11950;51.230;4.012;2023-06-10T08:21:35;10.05;;;9.20;;
23543;SDS011;11950;51.230;4.012;2023-06-10T08:24:05;10.27;;;9.20;;
23543;SDS011;11950;51.230;4.012;2023-06-10T08:26:32;9.88;;;8.63;;
23543;SDS011;11950;51.230;4.012;2023-06-10T08:28:59;10.15;;;8.73;;
23543;SDS011;11950;51.230;4.012;2023-06-10T08:31:25;10.13;;;9.07;;
23543;SDS011;11950;51.230;4.012;2023-06-10T08:33:51;10.75;;;8.70;;
23543;SDS011;11950;51.230;4.012;2023-06-10T08:36:17;16.38;;;9.38;;
23543;SDS011;11950;51.230;4.012;2023-06-10T08:38:44;11.80;;;8.88;;
23543;SDS011;11950;51.230;4.012;2023-06-10T08:41:10;9.82;;;9.02;;
23543;SDS011;11950;51.230;4.012;2023-06-10T08:43:48;9.35;;;8.45;;
23543;SDS011;11950;51.230;4.012;2023-06-10T08:46:28;11.15;;;8.60;;
23543;SDS011;11950;51.230;4.012;2023-06-10T08:48:56;9.38;;;8.55;;
23543;SDS011;11950;51.230;4.012;2023-06-10T08:51:29;9.25;;;7.93;;
23543;SDS011;11950;51.230;4.012;2023-06-10T08:54:01;9.27;;;8.43;;
23543;SDS011;11950;51.230;4.012;2023-06-10T08:56:31;8.93;;;7.97;;
23543;SDS011;11950;51.230;4.012;2023-06-10T08:59:02;7.78;;;7.18;;
23543;SDS011;11950;51.230;4.012;2023-06-10T09:01:28;12.98;;;7.90;;
23543;SDS011;11950;51.230;4.012;2023-06-10T09:03:55;9.13;;;8.13;;
23543;SDS011;11950;51.230;4.012;2023-06-10T09:06:22;8.75;;;7.80;;
23543;SDS011;11950;51.230;4.012;2023-06-10T09:08:49;11.18;;;7.72;;
23543;SDS011;11950;51.230;4.012;2023-06-10T09:11:16;9.10;;;8.15;;
23543;SDS011;11950;51.230;4.012;2023-06-10T09:13:42;9.25;;;7.45;;
23543;SDS011;11950;51.230;4.012;2023-06-10T09:16:09;8.38;;;7.28;;
23543;SDS011;11950;51.230;4.012;2023-06-10T09:18:37;11.25;;;7.38;;
23543;SDS011;11950;51.230;4.012;2023-06-10T09:21:03;10.75;;;7.68;;
23543;SDS011;11950;51.230;4.012;2023-06-10T09:23:30;9.40;;;7.72;;
23543;SDS011;11950;51.230;4.012;2023-06-10T09:25:57;8.35;;;6.65;;
23543;SDS011;11950;51.230;4.012;2023-06-10T09:28:24;11.45;;;8.10;;
23543;SDS011;11950;51.230;4.012;2023-06-10T09:31:00;7.88;;;7.00;;
23543;SDS011;11950;51.230;4.012;2023-06-10T09:33:37;8.80;;;7.10;;
23543;SDS011;11950;51.230;4.012;2023-06-10T09:36:05;7.82;;;7.10;;
23543;SDS011;11950;51.230;4.012;2023-06-10T09:38:32;9.95;;;7.40;;
23543;SDS011;11950;51.230;4.012;2023-06-10T09:41:00;9.18;;;6.85;;
23543;SDS011;11950;51.230;4.012;2023-06-10T09:43:38;7.47;;;6.80;;
23543;SDS011;11950;51.230;4.012;2023-06-10T09:46:18;8.23;;;7.47;;
23543;SDS011;11950;51.230;4.012;2023-06-10T09:48:46;7.72;;;6.80;;
23543;SDS011;11950;51.230;4.012;2023-06-10T09:51:13;6.97;;;6.28;;
23543;SDS011;11950;51.230;4.012;2023-06-10T09:53:40;7.30;;;6.70;;
23543;SDS011;11950;51.230;4.012;2023-06-10T09:56:06;6.93;;;6.32;;
23543;SDS011;11950;51.230;4.012;2023-06-10T09:58:37;7.22;;;6.47;;
23543;SDS011;11950;51.230;4.012;2023-06-10T10:01:04;6.82;;;6.22;;
23543;SDS011;11950;51.230;4.012;2023-06-10T10:03:31;8.38;;;7.35;;
23543;SDS011;11950;51.230;4.012;2023-06-10T10:05:59;7.50;;;6.90;;
23543;SDS011;11950;51.230;4.012;2023-06-10T10:08:28;7.78;;;7.10;;
23543;SDS011;11950;51.230;4.012;2023-06-10T10:10:55;8.93;;;7.05;;
23543;SDS011;11950;51.230;4.012;2023-06-10T10:13:22;8.98;;;7.18;;
23543;SDS011;11950;51.230;4.012;2023-06-10T10:15:50;7.43;;;6.82;;
23543;SDS011;11950;51.230;4.012;2023-06-10T10:18:17;8.02;;;7.30;;
23543;SDS011;11950;51.230;4.012;2023-06-10T10:20:54;10.65;;;7.25;;
23543;SDS011;11950;51.230;4.012;2023-06-10T10:23:23;7.47;;;6.78;;
23543;SDS011;11950;51.230;4.012;2023-06-10T10:25:55;8.73;;;7.13;;
23543;SDS011;11950;51.230;4.012;2023-06-10T10:28:26;7.63;;;6.40;;
23543;SDS011;11950;51.230;4.012;2023-06-10T10:31:02;7.47;;;6.68;;
23543;SDS011;11950;51.230;4.012;2023-06-10T10:36:06;7.93;;;7.30;;
23543;SDS011;11950;51.230;4.012;2023-06-10T10:38:33;8.35;;;7.55;;
23543;SDS011;11950;51.230;4.012;2023-06-10T10:41:01;8.63;;;7.80;;
23543;SDS011;11950;51.230;4.012;2023-06-10T10:43:28;8.70;;;7.22;;
23543;SDS011;11950;51.230;4.012;2023-06-10T10:45:59;15.02;;;8.77;;
23543;SDS011;11950;51.230;4.012;2023-06-10T10:50:58;9.00;;;8.23;;
23543;SDS011;11950;51.230;4.012;2023-06-10T10:53:24;8.60;;;7.80;;
23543;SDS011;11950;51.230;4.012;2023-06-10T10:55:57;9.05;;;8.15;;
23543;SDS011;11950;51.230;4.012;2023-06-10T11:01:01;8.00;;;7.18;;
23543;SDS011;11950;51.230;4.012;2023-06-10T11:03:41;8.75;;;7.90;;
23543;SDS011;11950;51.230;4.012;2023-06-10T11:06:15;12.40;;;7.95;;
23543;SDS011;11950;51.230;4.012;2023-06-10T11:16:29;10.15;;;8.50;;
23543;SDS011;11950;51.230;4.012;2023-06-10T11:19:03;10.65;;;7.30;;
23543;SDS011;11950;51.230;4.012;2023-06-10T11:21:30;7.57;;;6.82;;
23543;SDS011;11950;51.230;4.012;2023-06-10T11:23:57;8.35;;;7.55;;
23543;SDS011;11950;51.230;4.012;2023-06-10T11:31:30;8.70;;;7.90;;
23543;SDS011;11950;51.230;4.012;2023-06-10T11:34:04;10.93;;;8.43;;
23543;SDS011;11950;51.230;4.012;2023-06-10T11:36:32;8.93;;;8.02;;
23543;SDS011;11950;51.230;4.012;2023-06-10T11:39:04;10.40;;;7.90;;
23543;SDS011;11950;51.230;4.012;2023-06-10T11:41:31;9.93;;;7.63;;
23543;SDS011;11950;51.230;4.012;2023-06-10T11:44:12;8.02;;;6.82;;
23543;SDS011;11950;51.230;4.012;2023-06-10T11:46:39;9.02;;;7.47;;
23543;SDS011;11950;51.230;4.012;2023-06-10T11:49:08;8.25;;;7.22;;
23543;SDS011;11950;51.230;4.012;2023-06-10T11:51:35;7.68;;;7.00;;
23543;SDS011;11950;51.230;4.012;2023-06-10T11:54:04;9.82;;;7.85;;
23543;SDS011;11950;51.230;4.012;2023-06-10T11:56:31;9.82;;;8.10;;
23543;SDS011;11950;51.230;4.012;2023-06-10T11:59:05;12.98;;;8.18;;
23543;SDS011;11950;51.230;4.012;2023-06-10T12:01:35;11.13;;;7.57;;
23543;SDS011;11950;51.230;4.012;2023-06-10T12:06:48;8.73;;;7.88;;
23543;SDS011;11950;51.230;4.012;2023-06-10T12:09:19;12.25;;;7.47;;
23543;SDS011;11950;51.230;4.012;2023-06-10T12:12:07;7.38;;;6.82;;
23543;SDS011;11950;51.230;4.012;2023-06-10T12:19:57;10.40;;;7.28;;
23543;SDS011;11950;51.230;4.012;2023-06-10T12:22:24;10.07;;;7.97;;
23543;SDS011;11950;51.230;4.012;2023-06-10T12:24:57;11.75;;;7.97;;
23543;SDS011;11950;51.230;4.012;2023-06-10T12:27:31;8.60;;;7.80;;
23543;SDS011;11950;51.230;4.012;2023-06-10T12:30:01;8.32;;;7.45;;
23543;SDS011;11950;51.230;4.012;2023-06-10T12:32:36;8.93;;;8.10;;
23543;SDS011;11950;51.230;4.012;2023-06-10T12:35:10;10.55;;;8.40;;
23543;SDS011;11950;51.230;4.012;2023-06-10T12:37:40;9.82;;;7.68;;
23543;SDS011;11950;51.230;4.012;2023-06-10T12:40:07;8.93;;;7.53;;
23543;SDS011;11950;51.230;4.012;2023-06-10T12:42:38;8.40;;;7.57;;
23543;SDS011;11950;51.230;4.012;2023-06-10T12:45:05;10.52;;;8.10;;
23543;SDS011;11950;51.230;4.012;2023-06-10T12:47:34;8.05;;;7.15;;
23543;SDS011;11950;51.230;4.012;2023-06-10T12:50:03;7.97;;;7.18;;
23543;SDS011;11950;51.230;4.012;2023-06-10T12:52:30;8.40;;;7.53;;
23543;SDS011;11950;51.230;4.012;2023-06-10T12:54:58;8.85;;;8.05;;
23543;SDS011;11950;51.230;4.012;2023-06-10T12:57:24;9.43;;;7.60;;
23543;SDS011;11950;51.230;4.012;2023-06-10T12:59:51;10.43;;;7.65;;
23543;SDS011;11950;51.230;4.012;2023-06-10T13:02:26;11.65;;;8.63;;
23543;SDS011;11950;51.230;4.012;2023-06-10T13:04:52;11.40;;;7.53;;
23543;SDS011;11950;51.230;4.012;2023-06-10T13:07:19;7.82;;;7.05;;
23543;SDS011;11950;51.230;4.012;2023-06-10T13:09:45;8.75;;;7.93;;
23543;SDS011;11950;51.230;4.012;2023-06-10T13:12:14;11.73;;;8.23;;
23543;SDS011;11950;51.230;4.012;2023-06-10T13:14:40;8.98;;;8.02;;
23543;SDS011;11950;51.230;4.012;2023-06-10T13:17:07;8.77;;;7.97;;
23543;SDS011;11950;51.230;4.012;2023-06-10T13:19:33;9.10;;;8.15;;
23543;SDS011;11950;51.230;4.012;2023-06-10T13:21:59;10.68;;;8.60;;
23543;SDS011;11950;51.230;4.012;2023-06-10T13:24:26;8.95;;;7.95;;
23543;SDS011;11950;51.230;4.012;2023-06-10T13:26:53;7.90;;;7.20;;
23543;SDS011;11950;51.230;4.012;2023-06-10T13:29:20;10.32;;;7.78;;
23543;SDS011;11950;51.230;4.012;2023-06-10T13:31:46;8.60;;;7.80;;
23543;SDS011;11950;51.230;4.012;2023-06-10T13:34:12;8.55;;;7.68;;
23543;SDS011;11950;51.230;4.012;2023-06-10T13:36:39;8.73;;;7.93;;
23543;SDS011;11950;51.230;4.012;2023-06-10T13:39:05;8.32;;;7.72;;
23543;SDS011;11950;51.230;4.012;2023-06-10T13:41:31;9.35;;;8.10;;
23543;SDS011;11950;51.230;4.012;2023-06-10T13:43:58;8.15;;;7.38;;
23543;SDS011;11950;51.230;4.012;2023-06-10T13:46:24;8.57;;;7.68;;
23543;SDS011;11950;51.230;4.012;2023-06-10T13:48:52;11.18;;;7.68;;
23543;SDS011;11950;51.230;4.012;2023-06-10T13:51:18;7.97;;;7.43;;
23543;SDS011;11950;51.230;4.012;2023-06-10T13:53:44;8.60;;;7.93;;
23543;SDS011;11950;51.230;4.012;2023-06-10T13:56:11;8.40;;;7.40;;
23543;SDS011;11950;51.230;4.012;2023-06-10T13:58:38;8.15;;;7.45;;
23543;SDS011;11950;51.230;4.012;2023-06-10T14:01:04;8.55;;;7.75;;
23543;SDS011;11950;51.230;4.012;2023-06-10T14:03:31;8.38;;;7.47;;
23543;SDS011;11950;51.230;4.012;2023-06-10T14:05:58;8.38;;;7.78;;
23543;SDS011;11950;51.230;4.012;2023-06-10T14:08:24;8.48;;;7.78;;
23543;SDS011;11950;51.230;4.012;2023-06-10T14:10:50;9.43;;;7.47;;
23543;SDS011;11950;51.230;4.012;2023-06-10T14:13:17;9.35;;;7.70;;
23543;SDS011;11950;51.230;4.012;2023-06-10T14:15:44;10.25;;;7.63;;
23543;SDS011;11950;51.230;4.012;2023-06-10T14:18:11;8.98;;;8.00;;
23543;SDS011;11950;51.230;4.012;2023-06-10T14:20:37;8.40;;;7.60;;
23543;SDS011;11950;51.230;4.012;2023-06-10T14:23:03;8.70;;;8.00;;
23543;SDS011;11950;51.230;4.012;2023-06-10T14:25:30;9.27;;;7.63;;
23543;SDS011;11950;51.230;4.012;2023-06-10T14:27:56;8.60;;;7.80;;
23543;SDS011;11950;51.230;4.012;2023-06-10T14:30:23;9.32;;;7.55;;
23543;SDS011;11950;51.230;4.012;2023-06-10T14:32:49;8.82;;;8.10;;
23543;SDS011;11950;51.230;4.012;2023-06-10T14:35:15;8.18;;;7.47;;
23543;SDS011;11950;51.230;4.012;2023-06-10T14:37:41;8.82;;;8.02;;
23543;SDS011;11950;51.230;4.012;2023-06-10T14:40:08;8.65;;;7.88;;
23543;SDS011;11950;51.230;4.012;2023-06-10T14:42:34;10.02;;;8.50;;
23543;SDS011;11950;51.230;4.012;2023-06-10T14:45:00;9.40;;;7.70;;
23543;SDS011;11950;51.230;4.012;2023-06-10T14:47:27;8.48;;;7.78;;
23543;SDS011;11950;51.230;4.012;2023-06-10T14:49:53;8.20;;;7.45;;
23543;SDS011;11950;51.230;4.012;2023-06-10T14:52:19;8.35;;;7.35;;
23543;SDS011;11950;51.230;4.012;2023-06-10T14:54:46;9.15;;;8.00;;
23543;SDS011;11950;51.230;4.012;2023-06-10T14:57:12;7.95;;;7.18;;
23543;SDS011;11950;51.230;4.012;2023-06-10T14:59:38;8.88;;;8.18;;
23543;SDS011;11950;51.230;4.012;2023-06-10T15:02:05;8.77;;;7.97;;
23543;SDS011;11950;51.230;4.012;2023-06-10T15:04:31;8.27;;;7.55;;
23543;SDS011;11950;51.230;4.012;2023-06-10T15:06:58;8.77;;;7.95;;
23543;SDS011;11950;51.230;4.012;2023-06-10T15:09:25;8.68;;;7.82;;